Time;durP1;ratioP1;P1;durP2;ratioP2;P2;SDS_P1;SDS_P2;PMS_P1;PMS_P2;Temp;Humidity;BMP_temperature;BMP_pressure;BME280_temperature;BME280_humidity;BME280_pressure;Samples;Min_cycle;Max_cycle;Signal;HPM_P1;HPM_P2
2024/01/03 00:00:25;;;;;;;7.28;2.42;;;;;;;-144.73;100.00;54834.66;5031785;28;20117;-80
2024/01/03 00:02:51;;;;;;;6.70;3.00;;;;;;;-144.73;100.00;54740.22;5032002;28;20038;-80
2024/01/03 00:05:41;;;;;;;15.77;3.03;;;;;;;-144.73;100.00;54777.16;5027618;28;20029;-82
2024/01/03 00:08:30;;;;;;;14.68;2.55;;;;;;;-144.73;100.00;54822.34;5029553;28;20033;-80
2024/01/03 00:10:59;;;;;;;5.95;2.10;;;;;;;-144.73;100.00;54810.00;5032998;28;20056;-80
2024/01/03 00:14:03;;;;;;;9.00;2.42;;;;;;;-144.73;100.00;54801.81;5022109;28;20044;-80
2024/01/03 00:16:29;;;;;;;5.93;2.17;;;;;;;-144.73;100.00;54732.00;5009356;28;20093;-81
2024/01/03 00:18:59;;;;;;;7.25;2.10;;;;;;;-144.73;100.00;54768.97;5026259;28;20060;-82
2024/01/03 00:21:28;;;;;;;10.90;2.35;;;;;;;-144.73;100.00;54766.91;5044270;28;20030;-81
2024/01/03 00:24:00;;;;;;;9.65;1.90;;;;;;;-144.73;100.00;54801.81;5020398;28;20053;-81
2024/01/03 00:26:31;;;;;;;14.40;2.15;;;;;;;-144.73;100.00;54777.16;5021643;28;20053;-80
2024/01/03 00:28:57;;;;;;;10.53;2.03;;;;;;;-144.73;100.00;54781.28;5022763;28;20033;-80
2024/01/03 00:31:41;;;;;;;8.07;1.70;;;;;;;-144.73;100.00;54760.75;5023104;28;20272;-82
2024/01/03 00:34:32;;;;;;;10.63;1.75;;;;;;;-144.73;100.00;54744.31;5020242;28;20033;-80
2024/01/03 00:36:58;;;;;;;13.23;2.05;;;;;;;-144.73;100.00;54773.06;4976151;28;20049;-81
2024/01/03 00:39:31;;;;;;;9.50;2.42;;;;;;;-144.73;100.00;54801.81;5026737;28;20037;-79
2024/01/03 00:41:59;;;;;;;5.70;1.58;;;;;;;-144.73;100.00;54766.91;5024068;28;20137;-80
2024/01/03 00:44:24;;;;;;;11.07;1.95;;;;;;;-144.73;100.00;54750.50;5014175;28;20038;-78
2024/01/03 00:46:52;;;;;;;13.80;3.03;;;;;;;-144.73;100.00;54768.97;5017664;28;20032;-80
2024/01/03 00:49:18;;;;;;;10.25;1.90;;;;;;;-144.73;100.00;54752.53;5029961;28;20075;-78
2024/01/03 00:51:49;;;;;;;9.38;2.35;;;;;;;-144.73;100.00;54764.84;5026396;28;20020;-77
2024/01/03 00:54:16;;;;;;;11.43;2.08;;;;;;;-144.73;100.00;54793.59;5010201;28;20041;-76
2024/01/03 00:56:44;;;;;;;9.30;2.00;;;;;;;-144.73;100.00;54781.28;5010922;28;20026;-74
2024/01/03 00:59:10;;;;;;;11.77;2.58;;;;;;;-144.73;100.00;54756.66;5011832;28;20401;-75
2024/01/03 01:01:35;;;;;;;12.88;1.70;;;;;;;-144.73;100.00;54768.97;5012296;28;20025;-74
2024/01/03 01:04:01;;;;;;;9.23;1.90;;;;;;;-144.73;100.00;54752.53;5029678;28;20030;-74
2024/01/03 01:06:26;;;;;;;12.10;2.08;;;;;;;-144.73;100.00;54785.38;5024803;28;20064;-75
2024/01/03 01:08:54;;;;;;;11.73;1.98;;;;;;;-144.73;100.00;54781.28;5024793;28;20038;-76
2024/01/03 01:11:33;;;;;;;12.05;1.88;;;;;;;-144.73;100.00;54781.28;5028221;28;20104;-75
2024/01/03 01:14:04;;;;;;;14.82;1.73;;;;;;;-144.73;100.00;54760.75;5012739;28;20099;-75
2024/01/03 01:16:37;;;;;;;13.52;1.90;;;;;;;-144.73;100.00;54750.50;5029526;28;20484;-75
2024/01/03 01:19:05;;;;;;;8.65;2.28;;;;;;;-144.73;100.00;54781.28;5027117;28;20032;-75
2024/01/03 01:21:33;;;;;;;9.15;1.67;;;;;;;-144.73;100.00;54723.81;5025310;28;20010;-75
2024/01/03 01:23:58;;;;;;;10.90;2.40;;;;;;;-144.73;100.00;54773.06;5028143;28;20069;-75
2024/01/03 01:26:26;;;;;;;8.43;2.13;;;;;;;-144.73;100.00;54744.31;5028524;28;20030;-75
2024/01/03 01:28:55;;;;;;;13.93;2.53;;;;;;;-144.73;100.00;54727.91;5029839;28;20029;-74
2024/01/03 01:31:21;;;;;;;10.95;2.08;;;;;;;-144.73;100.00;54764.84;5028746;28;20030;-74
2024/01/03 01:33:52;;;;;;;13.88;2.00;;;;;;;-144.73;100.00;54756.66;5027890;28;20558;-73
2024/01/03 01:36:20;;;;;;;11.13;3.10;;;;;;;-144.73;100.00;54744.31;5023134;28;20113;-74
2024/01/03 01:38:47;;;;;;;11.95;2.20;;;;;;;-144.73;100.00;54805.91;5027401;28;20025;-74
2024/01/03 01:41:12;;;;;;;10.18;2.00;;;;;;;-144.73;100.00;54773.06;5025496;28;20022;-74
2024/01/03 01:43:38;;;;;;;12.45;2.15;;;;;;;-144.73;100.00;54771.00;5023720;28;20037;-75
2024/01/03 01:46:04;;;;;;;16.50;2.47;;;;;;;-144.73;100.00;54748.44;5033410;28;20021;-75
2024/01/03 01:48:36;;;;;;;18.35;2.47;;;;;;;-144.73;100.00;54736.13;5047400;28;20083;-74
2024/01/03 01:51:02;;;;;;;10.77;1.75;;;;;;;-144.73;100.00;54783.31;5031872;28;20028;-74
2024/01/03 01:53:29;;;;;;;13.68;3.25;;;;;;;-144.73;100.00;54764.84;5024531;28;20060;-74
2024/01/03 01:55:57;;;;;;;12.90;2.20;;;;;;;-144.73;100.00;54867.50;5032208;28;20018;-74
2024/01/03 01:58:29;;;;;;;27.15;2.70;;;;;;;-144.73;100.00;54764.84;5023679;28;20025;-74
2024/01/03 02:00:56;;;;;;;9.55;2.67;;;;;;;-144.73;100.00;54744.31;5027959;28;20013;-76
2024/01/03 02:03:25;;;;;;;17.08;3.15;;;;;;;-144.73;100.00;54752.53;5038011;28;20033;-75
2024/01/03 02:05:50;;;;;;;13.32;2.60;;;;;;;-144.73;100.00;54791.53;5023162;28;20289;-75
2024/01/03 02:08:17;;;;;;;13.38;2.65;;;;;;;-144.73;100.00;54744.31;4964726;28;1886277;-75
2024/01/03 02:10:42;;;;;;;18.20;3.00;;;;;;;-144.73;100.00;54764.84;5024054;28;20040;-74
2024/01/03 02:13:08;;;;;;;11.35;2.35;;;;;;;-144.73;100.00;54777.16;5023607;28;20037;-74
2024/01/03 02:15:34;;;;;;;21.08;2.78;;;;;;;-144.73;100.00;54764.84;5032588;28;20030;-75
2024/01/03 02:18:03;;;;;;;13.05;2.50;;;;;;;-144.73;100.00;54756.66;5029519;28;20057;-75
2024/01/03 02:20:45;;;;;;;14.52;2.28;;;;;;;-144.73;100.00;54801.81;5032708;28;20026;-73
2024/01/03 02:23:11;;;;;;;11.88;2.40;;;;;;;-144.73;100.00;54756.66;5028609;28;20052;-77
2024/01/03 02:25:37;;;;;;;10.07;2.20;;;;;;;-144.73;100.00;54760.75;5031475;28;20025;-79
2024/01/03 02:28:03;;;;;;;9.18;1.85;;;;;;;-144.73;100.00;54779.22;5029170;28;20120;-78
2024/01/03 02:30:31;;;;;;;18.42;2.75;;;;;;;-144.73;100.00;54727.91;5032200;28;20052;-78
2024/01/03 02:33:23;;;;;;;13.95;2.33;;;;;;;-144.73;100.00;54773.06;5023541;28;20049;-78
2024/01/03 02:35:49;;;;;;;18.33;3.03;;;;;;;-144.73;100.00;54744.31;5011814;28;20029;-79
2024/01/03 02:38:24;;;;;;;16.40;2.40;;;;;;;-144.73;100.00;54752.53;5017421;28;20026;-78
2024/01/03 02:40:54;;;;;;;20.52;2.42;;;;;;;-144.73;100.00;54773.06;5006638;28;20022;-77
2024/01/03 02:43:19;;;;;;;17.58;2.17;;;;;;;-144.73;100.00;54756.66;5028676;28;20037;-77
2024/01/03 02:45:45;;;;;;;12.32;2.17;;;;;;;-144.73;100.00;54824.38;5032525;28;20503;-77
2024/01/03 02:48:17;;;;;;;14.18;2.60;;;;;;;-144.73;100.00;54752.53;5031266;28;20037;-77
2024/01/03 02:50:48;;;;;;;12.95;2.22;;;;;;;-144.73;100.00;54777.16;5032249;28;20030;-77
2024/01/03 02:53:22;;;;;;;10.65;1.98;;;;;;;-144.73;100.00;54785.38;5031302;28;20037;-78
2024/01/03 02:55:47;;;;;;;8.88;1.92;;;;;;;-144.73;100.00;54760.75;5032066;28;20116;-79
2024/01/03 02:58:13;;;;;;;10.57;1.65;;;;;;;-144.73;100.00;54801.81;5031460;28;20100;-78
2024/01/03 03:00:50;;;;;;;12.88;1.92;;;;;;;-144.73;100.00;54816.19;5027820;28;20022;-78
2024/01/03 03:03:28;;;;;;;20.48;2.95;;;;;;;-144.73;100.00;54740.22;5017874;28;20064;-78
2024/01/03 03:06:03;;;;;;;14.40;2.57;;;;;;;-144.73;100.00;54777.16;5024351;28;20036;-78
2024/01/03 03:08:29;;;;;;;14.88;2.70;;;;;;;-144.73;100.00;54785.38;5025544;28;20116;-78
2024/01/03 03:11:03;;;;;;;12.63;2.30;;;;;;;-144.73;100.00;54773.06;5031786;28;20029;-78
2024/01/03 03:13:43;;;;;;;9.50;2.47;;;;;;;-144.73;100.00;54732.00;5030955;28;20025;-78
2024/01/03 03:16:08;;;;;;;8.88;2.03;;;;;;;-144.73;100.00;54777.16;5031761;28;20406;-78
2024/01/03 03:18:34;;;;;;;11.88;1.38;;;;;;;-144.73;100.00;54789.50;5028708;28;20053;-78
2024/01/03 03:21:00;;;;;;;6.45;1.58;;;;;;;-144.73;100.00;54801.81;5031143;28;20051;-77
2024/01/03 03:23:26;;;;;;;11.43;1.63;;;;;;;-144.73;100.00;54781.28;5030857;28;20033;-78
2024/01/03 03:25:51;;;;;;;10.20;1.52;;;;;;;-144.73;100.00;54748.44;5031888;28;20040;-79
2024/01/03 03:28:17;;;;;;;10.00;1.33;;;;;;;-144.73;100.00;54760.75;5031120;28;20025;-76
2024/01/03 03:30:43;;;;;;;5.85;1.17;;;;;;;-144.73;100.00;54756.66;5031167;28;20025;-78
2024/01/03 03:33:08;;;;;;;7.72;1.65;;;;;;;-144.73;100.00;54760.75;5031799;28;20063;-78
2024/01/03 03:35:34;;;;;;;11.38;1.48;;;;;;;-144.73;100.00;54773.06;5032324;28;20025;-78
2024/01/03 03:38:02;;;;;;;8.23;1.25;;;;;;;-144.73;100.00;54785.38;5031801;28;20476;-78
2024/01/03 03:40:30;;;;;;;7.07;1.63;;;;;;;-144.73;100.00;54758.69;5032729;28;20103;-78
2024/01/03 03:42:56;;;;;;;7.70;1.50;;;;;;;-144.73;100.00;54768.97;5032063;28;20029;-79
2024/01/03 03:45:22;;;;;;;8.48;1.40;;;;;;;-144.73;100.00;54760.75;5033666;28;20117;-80
2024/01/03 03:47:47;;;;;;;4.10;0.95;;;;;;;-144.73;100.00;54781.28;5029911;28;20026;-79
2024/01/03 03:50:13;;;;;;;9.68;2.00;;;;;;;-144.73;100.00;54764.84;5023774;28;20033;-80
2024/01/03 03:52:40;;;;;;;11.20;1.70;;;;;;;-144.73;100.00;54736.13;5028288;28;20021;-79
2024/01/03 03:55:06;;;;;;;6.93;1.27;;;;;;;-144.73;100.00;54695.06;5034600;28;20029;-79
2024/01/03 03:57:32;;;;;;;7.55;1.38;;;;;;;-144.73;100.00;54783.31;5033906;28;20091;-80
2024/01/03 03:59:58;;;;;;;4.45;1.23;;;;;;;-144.73;100.00;54777.16;5034152;28;20033;-79
2024/01/03 04:02:24;;;;;;;11.38;1.60;;;;;;;-144.73;100.00;54768.97;5034716;28;20045;-80
2024/01/03 04:04:50;;;;;;;5.57;1.25;;;;;;;-144.73;100.00;54760.75;5033785;28;20034;-80
2024/01/03 04:07:19;;;;;;;8.52;1.40;;;;;;;-144.73;100.00;54768.97;5033335;28;20021;-80
2024/01/03 04:09:44;;;;;;;8.52;1.42;;;;;;;-144.73;100.00;54768.97;5033362;28;20033;-80
2024/01/03 04:12:13;;;;;;;7.80;1.38;;;;;;;-144.73;100.00;54748.44;5030222;28;20026;-80
2024/01/03 04:14:41;;;;;;;8.20;1.83;;;;;;;-144.73;100.00;54760.75;5031325;28;20037;-80
2024/01/03 04:17:07;;;;;;;7.60;1.20;;;;;;;-144.73;100.00;54768.97;5033562;28;20026;-79
2024/01/03 04:19:32;;;;;;;7.93;1.45;;;;;;;-144.73;100.00;54740.22;5033481;28;20037;-79
2024/01/03 04:22:01;;;;;;;3.47;1.05;;;;;;;-144.73;100.00;54740.22;5020801;28;20030;-79
2024/01/03 04:24:26;;;;;;;8.35;1.20;;;;;;;-144.73;100.00;54781.28;5017355;28;20033;-79
2024/01/03 04:26:54;;;;;;;8.70;1.73;;;;;;;-144.73;100.00;54754.59;5016128;28;20029;-79
2024/01/03 04:29:19;;;;;;;6.82;1.13;;;;;;;-144.73;100.00;54773.06;5007775;28;20100;-78
2024/01/03 04:31:45;;;;;;;9.55;1.88;;;;;;;-144.73;100.00;54746.38;5033960;28;20021;-80
2024/01/03 04:34:10;;;;;;;7.40;1.45;;;;;;;-144.73;100.00;54801.81;5018506;28;20044;-79
2024/01/03 04:36:36;;;;;;;4.22;1.10;;;;;;;-144.73;100.00;54744.31;5013770;28;20056;-80
2024/01/03 04:39:07;;;;;;;3.58;1.17;;;;;;;-144.73;100.00;54752.53;5023357;28;20034;-80
2024/01/03 04:42:05;;;;;;;15.13;1.65;;;;;;;-144.73;100.00;54760.75;5014069;28;20041;-79
2024/01/03 04:44:34;;;;;;;8.05;1.38;;;;;;;-144.73;100.00;54760.75;5024053;28;20105;-80
2024/01/03 04:47:03;;;;;;;5.00;1.15;;;;;;;-144.73;100.00;54756.66;5035857;28;20029;-80
2024/01/03 04:49:41;;;;;;;5.20;1.10;;;;;;;-144.73;100.00;54744.31;5028139;28;20076;-81
2024/01/03 04:52:11;;;;;;;3.40;0.85;;;;;;;-144.73;100.00;54768.97;5032908;28;20022;-81
2024/01/03 04:54:39;;;;;;;5.18;1.10;;;;;;;-144.73;100.00;54752.53;5013461;28;20045;-79
2024/01/03 04:57:17;;;;;;;9.77;1.35;;;;;;;-144.73;100.00;54768.97;5028262;28;20037;-81
2024/01/03 04:59:45;;;;;;;4.78;0.90;;;;;;;-144.73;100.00;54760.75;5017136;28;20045;-81
2024/01/03 05:02:22;;;;;;;8.77;1.70;;;;;;;-144.73;100.00;54828.50;5027860;28;20076;-80
2024/01/03 05:04:50;;;;;;;4.85;1.00;;;;;;;-144.73;100.00;54781.28;5019431;28;20457;-81
2024/01/03 05:07:16;;;;;;;6.10;0.80;;;;;;;-144.73;100.00;54764.84;5031536;28;20014;-82
2024/01/03 05:09:41;;;;;;;11.32;1.25;;;;;;;-144.73;100.00;54777.16;5026257;28;20040;-82
2024/01/03 05:12:07;;;;;;;4.22;0.80;;;;;;;-144.73;100.00;54744.31;5033545;28;20155;-82
2024/01/03 05:14:32;;;;;;;14.32;1.48;;;;;;;-144.73;100.00;54764.84;5033263;28;20232;-82
2024/01/03 05:16:58;;;;;;;7.45;1.38;;;;;;;-144.73;100.00;54783.31;5033829;28;20033;-81
2024/01/03 05:19:23;;;;;;;7.18;1.20;;;;;;;-144.73;100.00;54744.31;5026072;28;20057;-82
2024/01/03 05:21:49;;;;;;;3.88;1.02;;;;;;;-144.73;100.00;54781.28;5036318;28;20025;-82
2024/01/03 05:24:14;;;;;;;6.90;1.33;;;;;;;-144.73;100.00;54740.22;5037393;28;20034;-80
2024/01/03 05:26:40;;;;;;;6.47;0.90;;;;;;;-144.73;100.00;54764.84;5038698;28;20021;-81
2024/01/03 05:29:05;;;;;;;5.03;1.10;;;;;;;-144.73;100.00;54762.81;5038639;28;20045;-82
2024/01/03 05:31:30;;;;;;;4.35;1.10;;;;;;;-144.73;100.00;54777.16;5037351;28;20022;-82
2024/01/03 05:33:56;;;;;;;2.88;1.25;;;;;;;-144.73;100.00;54773.06;5036976;28;20029;-83
2024/01/03 05:36:21;;;;;;;5.35;1.15;;;;;;;-144.73;100.00;54801.81;5031550;28;20031;-82
2024/01/03 05:38:47;;;;;;;13.52;1.60;;;;;;;-144.73;100.00;54771.00;5036629;28;20048;-82
2024/01/03 05:41:12;;;;;;;4.25;1.38;;;;;;;-144.73;100.00;54760.75;5034205;28;20037;-82
2024/01/03 05:43:38;;;;;;;9.07;1.58;;;;;;;-144.73;100.00;54756.66;5036317;28;20029;-82
2024/01/03 05:46:03;;;;;;;7.03;1.40;;;;;;;-144.73;100.00;54773.06;5032899;28;20032;-81
2024/01/03 05:48:29;;;;;;;7.10;1.50;;;;;;;-144.73;100.00;54760.75;5036708;28;20071;-82
2024/01/03 05:50:54;;;;;;;6.80;1.60;;;;;;;-144.73;100.00;54785.38;5036140;28;20144;-82
2024/01/03 05:53:20;;;;;;;11.43;1.88;;;;;;;-144.73;100.00;54764.84;5035678;28;20060;-81
2024/01/03 05:55:45;;;;;;;6.65;1.42;;;;;;;-144.73;100.00;54801.81;5032566;28;20496;-82
2024/01/03 05:58:11;;;;;;;10.95;1.98;;;;;;;-144.73;100.00;54781.28;5030573;28;20030;-82
2024/01/03 06:00:36;;;;;;;9.25;1.90;;;;;;;-144.73;100.00;54768.97;5035168;28;20032;-83
2024/01/03 06:03:02;;;;;;;6.47;1.60;;;;;;;-144.73;100.00;54752.53;5048795;28;20059;-82
2024/01/03 06:05:27;;;;;;;7.35;1.83;;;;;;;-144.73;100.00;54756.66;5023322;28;20060;-81
2024/01/03 06:07:53;;;;;;;5.18;1.35;;;;;;;-144.73;100.00;54746.38;5035567;28;20040;-81
2024/01/03 06:10:19;;;;;;;5.50;1.83;;;;;;;-144.73;100.00;54732.00;5033998;28;20065;-81
2024/01/03 06:12:44;;;;;;;8.77;1.30;;;;;;;-144.73;100.00;54801.81;5035858;28;20036;-82
2024/01/03 06:15:15;;;;;;;8.68;1.38;;;;;;;-144.73;100.00;54752.53;5036863;28;20021;-82
2024/01/03 06:17:55;;;;;;;10.50;1.70;;;;;;;-144.73;100.00;54777.16;5043294;28;20040;-81
2024/01/03 06:20:21;;;;;;;5.43;1.20;;;;;;;-144.73;100.00;54777.16;5036286;28;20024;-81
2024/01/03 06:22:46;;;;;;;6.60;1.70;;;;;;;-144.73;100.00;54777.16;5037773;28;20151;-82
2024/01/03 06:25:12;;;;;;;7.57;1.20;;;;;;;-144.73;100.00;54744.31;5031243;28;20566;-82
2024/01/03 06:27:37;;;;;;;6.10;1.30;;;;;;;-144.73;100.00;54773.06;5015915;28;20048;-82
2024/01/03 06:30:03;;;;;;;10.00;1.58;;;;;;;-144.73;100.00;54748.44;5028681;28;20112;-81
2024/01/03 06:32:31;;;;;;;7.65;1.50;;;;;;;-144.73;100.00;54768.97;5019687;28;20030;-82
2024/01/03 06:34:57;;;;;;;9.55;0.93;;;;;;;-144.73;100.00;54773.06;5031894;28;20075;-83
2024/01/03 06:37:22;;;;;;;3.08;0.82;;;;;;;-144.73;100.00;54801.81;5032155;28;20120;-82
2024/01/03 06:39:48;;;;;;;4.35;1.40;;;;;;;-144.73;100.00;54744.31;5036561;28;20084;-82
2024/01/03 06:42:16;;;;;;;2.45;0.80;;;;;;;-144.73;100.00;54781.28;5028467;28;20032;-82
2024/01/03 06:44:41;;;;;;;1.13;0.60;;;;;;;-144.73;100.00;54824.38;5033199;28;20041;-81
2024/01/03 06:47:07;;;;;;;3.10;0.70;;;;;;;-144.73;100.00;54867.50;5030086;28;20033;-81
2024/01/03 06:49:32;;;;;;;2.10;0.50;;;;;;;-144.73;100.00;54783.31;5036220;28;20041;-81
2024/01/03 06:52:01;;;;;;;2.20;0.70;;;;;;;-144.73;100.00;54801.81;5033532;28;20025;-81
2024/01/03 06:54:29;;;;;;;1.58;0.77;;;;;;;-144.73;100.00;54777.16;5047784;28;20030;-82
2024/01/03 06:56:55;;;;;;;1.38;0.52;;;;;;;-144.73;100.00;54777.16;5030381;28;20048;-81
2024/01/03 06:59:20;;;;;;;3.35;0.80;;;;;;;-144.73;100.00;54752.53;5036753;28;20037;-81
2024/01/03 07:01:46;;;;;;;3.80;1.08;;;;;;;-144.73;100.00;54789.50;5034862;28;20013;-79
2024/01/03 07:04:12;;;;;;;2.30;0.60;;;;;;;-144.73;100.00;54727.91;5031799;28;20041;-82
2024/01/03 07:06:38;;;;;;;3.40;0.65;;;;;;;-144.73;100.00;54785.38;5036417;28;20120;-81
2024/01/03 07:09:04;;;;;;;2.42;0.60;;;;;;;-144.73;100.00;54787.44;5035049;28;20488;-80
2024/01/03 07:11:30;;;;;;;1.17;0.50;;;;;;;-144.73;100.00;54766.91;5037261;28;20017;-82
2024/01/03 07:13:55;;;;;;;3.90;0.50;;;;;;;-144.73;100.00;54715.59;5016920;28;20045;-83
2024/01/03 07:16:25;;;;;;;10.93;0.55;;;;;;;-144.73;100.00;54766.91;5018370;28;20036;-82
2024/01/03 07:18:50;;;;;;;1.05;0.50;;;;;;;-144.73;100.00;54773.06;5016751;28;20040;-82
2024/01/03 07:21:16;;;;;;;4.85;0.98;;;;;;;-144.73;100.00;54789.50;5019359;28;20120;-82
2024/01/03 07:23:41;;;;;;;7.90;1.83;;;;;;;-144.73;100.00;54810.00;5031788;28;20069;-81
2024/01/03 07:26:07;;;;;;;4.57;1.60;;;;;;;-144.73;100.00;54764.84;5030988;28;20018;-83
2024/01/03 07:28:33;;;;;;;11.10;2.25;;;;;;;-144.73;100.00;54752.53;5035204;28;20029;-81
2024/01/03 07:30:59;;;;;;;12.18;2.15;;;;;;;-144.73;100.00;54752.53;5028887;28;20026;-81
2024/01/03 07:33:28;;;;;;;11.93;2.85;;;;;;;-144.73;100.00;54785.38;5032246;28;20041;-82
2024/01/03 07:35:57;;;;;;;13.65;3.67;;;;;;;-144.73;100.00;54760.75;5038475;28;20029;-81
2024/01/03 07:38:22;;;;;;;15.77;3.20;;;;;;;-144.73;100.00;54727.91;5034647;28;20033;-80
2024/01/03 07:40:51;;;;;;;15.38;3.22;;;;;;;-144.73;100.00;54801.81;5032507;28;20108;-82
2024/01/03 07:43:17;;;;;;;19.23;3.40;;;;;;;-144.73;100.00;54822.34;5033865;28;20396;-81
2024/01/03 07:45:42;;;;;;;22.55;3.80;;;;;;;-144.73;100.00;54719.69;5030745;28;20037;-80
2024/01/03 07:48:08;;;;;;;27.42;3.78;;;;;;;-144.73;100.00;54783.31;5036215;28;20060;-81
2024/01/03 07:50:36;;;;;;;23.50;3.85;;;;;;;-144.73;100.00;54777.16;5035864;28;20061;-81
2024/01/03 07:53:02;;;;;;;20.27;2.85;;;;;;;-144.73;100.00;54768.97;5035087;28;20037;-81
2024/01/03 07:55:27;;;;;;;19.80;3.63;;;;;;;-144.73;100.00;54744.31;5034067;28;20033;-82
2024/01/03 07:57:53;;;;;;;15.52;3.20;;;;;;;-144.73;100.00;54752.53;5035360;28;20033;-80
2024/01/03 08:00:19;;;;;;;22.13;4.05;;;;;;;-144.73;100.00;54744.31;5033971;28;20043;-81
2024/01/03 08:02:47;;;;;;;23.52;3.15;;;;;;;-144.73;100.00;54777.16;5035564;28;20465;-81
2024/01/03 08:05:13;;;;;;;24.85;2.92;;;;;;;-144.73;100.00;54787.44;5035542;28;20041;-82
2024/01/03 08:07:38;;;;;;;36.85;4.40;;;;;;;-144.73;100.00;54805.91;5034380;28;20079;-82
2024/01/03 08:10:04;;;;;;;18.48;4.15;;;;;;;-144.73;100.00;54777.16;5033820;28;20033;-81
2024/01/03 08:12:33;;;;;;;24.42;3.90;;;;;;;-144.73;100.00;54773.06;5027920;28;20033;-82
2024/01/03 08:14:59;;;;;;;24.95;3.90;;;;;;;-144.73;100.00;54787.44;5041643;28;20021;-82
2024/01/03 08:17:26;;;;;;;22.08;4.18;;;;;;;-144.73;100.00;54752.53;5030799;28;20117;-80
2024/01/03 08:19:52;;;;;;;10.60;2.53;;;;;;;-144.73;100.00;54781.28;5031821;28;20041;-79
2024/01/03 08:22:17;;;;;;;18.98;3.20;;;;;;;-144.73;100.00;54748.44;5029621;28;20112;-77
2024/01/03 08:24:43;;;;;;;21.85;3.88;;;;;;;-144.73;100.00;54777.16;5024537;28;20080;-75
2024/01/03 08:27:09;;;;;;;26.73;3.10;;;;;;;-144.73;100.00;54822.34;5029109;28;20026;-76
2024/01/03 08:29:37;;;;;;;27.02;3.30;;;;;;;-144.73;100.00;54764.84;5030557;28;20037;-75
2024/01/03 08:32:03;;;;;;;30.65;3.78;;;;;;;-144.73;100.00;54756.66;5025373;28;20026;-74
2024/01/03 08:34:29;;;;;;;20.10;3.65;;;;;;;-144.73;100.00;54732.00;5015589;28;20128;-74
2024/01/03 08:36:54;;;;;;;16.63;2.25;;;;;;;-144.73;100.00;54781.28;5010960;28;20199;-74
2024/01/03 08:39:21;;;;;;;21.90;2.72;;;;;;;-144.73;100.00;54756.66;5014831;28;20507;-74
2024/01/03 08:41:47;;;;;;;18.52;3.70;;;;;;;-144.73;100.00;54793.59;5017210;28;20022;-74
2024/01/03 08:44:13;;;;;;;17.23;3.30;;;;;;;-144.73;100.00;54760.75;5028322;28;20045;-74
2024/01/03 08:46:43;;;;;;;19.25;3.17;;;;;;;-144.73;100.00;54736.13;5030224;28;20025;-74
2024/01/03 08:49:09;;;;;;;19.67;4.03;;;;;;;-144.73;100.00;54723.81;5027177;28;20034;-74
2024/01/03 08:51:45;;;;;;;21.35;3.22;;;;;;;-144.73;100.00;54777.16;5029840;28;20108;-75
2024/01/03 08:54:10;;;;;;;25.95;3.33;;;;;;;-144.73;100.00;54764.84;5029812;28;20036;-74
2024/01/03 08:56:39;;;;;;;25.75;3.63;;;;;;;-144.73;100.00;54742.28;5026184;28;20025;-74
2024/01/03 08:59:05;;;;;;;26.77;4.28;;;;;;;-144.73;100.00;54762.81;5028305;28;20034;-75
2024/01/03 09:01:34;;;;;;;26.45;4.78;;;;;;;-144.73;100.00;54715.59;5026186;28;20026;-74
2024/01/03 09:04:00;;;;;;;18.40;3.50;;;;;;;-144.73;100.00;54752.53;5029280;28;20037;-74
2024/01/03 09:06:28;;;;;;;21.50;3.40;;;;;;;-144.73;100.00;54758.69;5030467;28;20078;-75
2024/01/03 09:08:56;;;;;;;18.10;3.70;;;;;;;-144.73;100.00;54732.00;5029607;28;20053;-75
2024/01/03 09:11:28;;;;;;;21.58;3.65;;;;;;;-144.73;100.00;54773.06;5029313;28;20061;-75
2024/01/03 09:13:56;;;;;;;12.45;3.42;;;;;;;-144.73;100.00;54810.00;5025698;28;20042;-75
2024/01/03 09:16:23;;;;;;;25.90;4.60;;;;;;;-144.73;100.00;54760.75;5010680;28;20034;-75
2024/01/03 09:18:49;;;;;;;18.65;3.50;;;;;;;-144.73;100.00;54748.44;5010122;28;20092;-75
2024/01/03 09:21:15;;;;;;;22.67;3.88;;;;;;;-144.73;100.00;54756.66;5007693;28;20160;-75
2024/01/03 09:23:41;;;;;;;16.67;3.50;;;;;;;-144.73;100.00;54801.81;5026755;28;20037;-74
2024/01/03 09:26:10;;;;;;;17.25;3.08;;;;;;;-144.73;100.00;54711.47;5027316;28;20022;-75
2024/01/03 09:28:44;;;;;;;22.48;4.05;;;;;;;-144.73;100.00;54777.16;5028720;28;20116;-76
2024/01/03 09:31:09;;;;;;;27.55;3.72;;;;;;;-144.73;100.00;54750.50;5030303;28;20083;-74
2024/01/03 09:33:35;;;;;;;16.38;3.28;;;;;;;-144.73;100.00;54740.22;5027127;28;20034;-74
2024/01/03 09:36:01;;;;;;;15.25;3.30;;;;;;;-144.73;100.00;54773.06;5026902;28;20048;-75
2024/01/03 09:38:26;;;;;;;17.02;2.60;;;;;;;-144.73;100.00;54758.69;5027668;28;20120;-75
2024/01/03 09:40:52;;;;;;;17.27;3.15;;;;;;;-144.73;100.00;54756.66;5029685;28;20021;-75
2024/01/03 09:43:19;;;;;;;11.48;2.22;;;;;;;-144.73;100.00;54719.69;5024557;28;20041;-75
2024/01/03 09:45:45;;;;;;;18.17;3.38;;;;;;;-144.73;100.00;54779.22;5016155;28;20033;-69
2024/01/03 09:48:11;;;;;;;19.90;2.67;;;;;;;-144.73;100.00;54756.66;5016816;28;20030;-69
2024/01/03 09:50:38;;;;;;;19.13;3.33;;;;;;;-144.73;100.00;54777.16;5021629;28;20021;-69
2024/01/03 09:53:06;;;;;;;14.55;3.10;;;;;;;-144.73;100.00;54783.31;5022531;28;20068;-68
2024/01/03 09:55:34;;;;;;;19.42;3.33;;;;;;;-144.73;100.00;54719.69;5025184;28;20084;-70
2024/01/03 09:58:00;;;;;;;17.20;2.50;;;;;;;-144.73;100.00;54715.59;5026129;28;20056;-68
2024/01/03 10:00:30;;;;;;;15.00;3.33;;;;;;;-144.73;100.00;54793.59;5021206;28;20026;-69
2024/01/03 10:03:07;;;;;;;18.55;3.45;;;;;;;-144.73;100.00;54801.81;5013310;28;20046;-69
2024/01/03 10:05:32;;;;;;;20.23;3.72;;;;;;;-144.73;100.00;54793.59;5011868;28;20033;-69
2024/01/03 10:07:58;;;;;;;17.05;4.03;;;;;;;-144.73;100.00;54744.31;5014281;28;20046;-69
2024/01/03 10:10:34;;;;;;;18.05;3.08;;;;;;;-144.73;100.00;54756.66;5032241;28;20026;-68
2024/01/03 10:13:13;;;;;;;18.55;3.38;;;;;;;-144.73;100.00;54764.84;5024539;28;20030;-69
2024/01/03 10:15:40;;;;;;;17.80;4.13;;;;;;;-144.73;100.00;54781.28;5030091;28;20029;-70
2024/01/03 10:18:06;;;;;;;19.02;4.28;;;;;;;-144.73;100.00;54719.69;5019608;28;20036;-69
2024/01/03 10:20:33;;;;;;;22.98;4.80;;;;;;;-144.73;100.00;54773.06;5047762;28;20051;-69
2024/01/03 10:23:16;;;;;;;18.52;4.63;;;;;;;-144.73;100.00;54732.00;5027591;28;20047;-70
2024/01/03 10:25:45;;;;;;;24.67;3.80;;;;;;;-144.73;100.00;54748.44;5027689;28;20021;-69
2024/01/03 10:28:12;;;;;;;19.38;3.65;;;;;;;-144.73;100.00;54760.75;5026254;28;20039;-69
2024/01/03 10:30:37;;;;;;;17.98;3.25;;;;;;;-144.73;100.00;54744.31;5029591;28;20456;-69
2024/01/03 10:33:08;;;;;;;18.55;4.18;;;;;;;-144.73;100.00;54744.31;5025710;28;20064;-69
2024/01/03 10:35:43;;;;;;;16.92;3.45;;;;;;;-144.73;100.00;54736.13;5023479;28;20018;-71
2024/01/03 10:38:09;;;;;;;17.83;3.10;;;;;;;-144.73;100.00;54736.13;5028748;28;20026;-69
2024/01/03 10:40:40;;;;;;;26.60;4.45;;;;;;;-144.73;100.00;54717.66;5030422;28;20044;-70
2024/01/03 10:43:08;;;;;;;19.45;3.38;;;;;;;-144.73;100.00;54771.00;5047325;28;20069;-70
2024/01/03 10:45:33;;;;;;;20.85;3.33;;;;;;;-144.73;100.00;54752.53;5026133;28;20022;-69
2024/01/03 10:47:59;;;;;;;20.27;4.35;;;;;;;-144.73;100.00;54736.13;5016533;28;20109;-70
2024/01/03 10:50:25;;;;;;;18.60;3.55;;;;;;;-144.73;100.00;54777.16;5024155;28;20018;-69
2024/01/03 10:52:57;;;;;;;26.30;3.90;;;;;;;-144.73;100.00;54760.75;5027389;28;20037;-70
2024/01/03 10:55:26;;;;;;;;;;;;;;;-144.73;100.00;54744.31;5031440;28;20361;-70
2024/01/03 10:58:00;;;;;;;13.00;2.92;;;;;;;-144.73;100.00;54736.13;5029641;28;19920;-71
2024/01/03 11:00:54;;;;;;;16.65;4.15;;;;;;;-144.73;100.00;54719.69;5032242;28;20068;-70
2024/01/03 11:03:39;;;;;;;12.95;3.20;;;;;;;-144.73;100.00;54752.53;5048561;28;20040;-70
2024/01/03 11:06:18;;;;;;;16.88;3.38;;;;;;;-144.73;100.00;54764.84;5026295;28;20044;-71
2024/01/03 11:08:51;;;;;;;14.15;2.85;;;;;;;-144.73;100.00;54719.69;5031250;28;20040;-72